Decoded Metar for LESO (DONOSTI in SPAIN) (IATA:EAS) | Meteo·Mobile Aviation Weather
aviador You're here:

LESO Decoded Metar

DONOSTI in SPAIN
Report Time2019-10-19 22:30:00
UTC Time2019-10-19 22:38:07
Flight Rules vfr VFR
Wind240° at 06 kt
W.Decomp.*RWY 22: 5.6 kt HW 2.2 kt RCW
Visibility9999 m
Phenomena:N/A
Clouds:Scattered 013 Hf
Expected CloudBase > 400 ft AGL from Temp-Dew spread
CeilingNone
Temp16°C (ISA +1)
Dew Point15°C (94% RH)
AAT15.5°C
QNH1003 hPa
Density Alt715 ft
Elevation26 ft
Report Wrong Elevation
Raw Report
METAR LESO 192230Z AUTO 24006KT 200V270 9999 SCT013 16/15 Q1003=

Extra information for LESO:More info

Metar Taf Metar & Taf Last 4 Metars F.Rules Stats Wind Profile Meteogram Temp Stats Airport Information Weather charts Add Link Nearby VenuesMetar ALERT Operation Metar Decoded Social comments